sensor_id;sensor_type;location;lat;lon;timestamp;P1;durP1;ratioP1;P2;durP2;ratioP2
71423;SDS011;59240;51.370;-0.486;2024-03-25T00:01:07;9.82;;;3.42;;
71423;SDS011;59240;51.370;-0.486;2024-03-25T00:06:02;8.57;;;4.43;;
71423;SDS011;59240;51.370;-0.486;2024-03-25T00:10:58;15.75;;;5.28;;
71423;SDS011;59240;51.370;-0.486;2024-03-25T00:15:54;16.85;;;6.30;;
71423;SDS011;59240;51.370;-0.486;2024-03-25T00:20:49;16.92;;;6.43;;
71423;SDS011;59240;51.370;-0.486;2024-03-25T00:25:47;17.73;;;6.50;;
71423;SDS011;59240;51.370;-0.486;2024-03-25T00:30:43;16.90;;;5.72;;
71423;SDS011;59240;51.370;-0.486;2024-03-25T00:35:40;12.43;;;5.30;;
71423;SDS011;59240;51.370;-0.486;2024-03-25T00:40:35;17.23;;;4.60;;
71423;SDS011;59240;51.370;-0.486;2024-03-25T00:45:31;10.88;;;4.90;;
71423;SDS011;59240;51.370;-0.486;2024-03-25T00:50:27;9.93;;;4.50;;
71423;SDS011;59240;51.370;-0.486;2024-03-25T00:55:22;16.65;;;5.30;;
71423;SDS011;59240;51.370;-0.486;2024-03-25T01:00:18;16.60;;;5.43;;
71423;SDS011;59240;51.370;-0.486;2024-03-25T01:05:14;8.68;;;3.72;;
71423;SDS011;59240;51.370;-0.486;2024-03-25T01:10:10;10.65;;;3.38;;
71423;SDS011;59240;51.370;-0.486;2024-03-25T01:15:06;9.00;;;3.00;;
71423;SDS011;59240;51.370;-0.486;2024-03-25T01:20:02;12.50;;;2.75;;
71423;SDS011;59240;51.370;-0.486;2024-03-25T01:24:59;9.65;;;3.60;;
71423;SDS011;59240;51.370;-0.486;2024-03-25T01:29:55;4.50;;;2.78;;
71423;SDS011;59240;51.370;-0.486;2024-03-25T01:34:51;8.90;;;3.28;;
71423;SDS011;59240;51.370;-0.486;2024-03-25T01:39:50;5.88;;;2.42;;
71423;SDS011;59240;51.370;-0.486;2024-03-25T01:44:45;6.65;;;3.45;;
71423;SDS011;59240;51.370;-0.486;2024-03-25T01:49:42;9.32;;;2.83;;
71423;SDS011;59240;51.370;-0.486;2024-03-25T01:54:38;5.72;;;2.78;;
71423;SDS011;59240;51.370;-0.486;2024-03-25T01:59:34;8.48;;;2.53;;
71423;SDS011;59240;51.370;-0.486;2024-03-25T02:04:30;5.35;;;2.90;;
71423;SDS011;59240;51.370;-0.486;2024-03-25T02:09:26;8.30;;;2.42;;
71423;SDS011;59240;51.370;-0.486;2024-03-25T02:14:23;5.38;;;2.20;;
71423;SDS011;59240;51.370;-0.486;2024-03-25T02:19:19;10.90;;;2.83;;
71423;SDS011;59240;51.370;-0.486;2024-03-25T02:24:17;3.40;;;2.05;;
71423;SDS011;59240;51.370;-0.486;2024-03-25T02:29:16;10.60;;;2.30;;
71423;SDS011;59240;51.370;-0.486;2024-03-25T02:34:14;7.07;;;1.88;;
71423;SDS011;59240;51.370;-0.486;2024-03-25T02:39:09;5.53;;;2.50;;
71423;SDS011;59240;51.370;-0.486;2024-03-25T02:44:05;10.55;;;2.75;;
71423;SDS011;59240;51.370;-0.486;2024-03-25T02:49:01;7.05;;;2.78;;
71423;SDS011;59240;51.370;-0.486;2024-03-25T02:53:57;8.35;;;3.35;;
71423;SDS011;59240;51.370;-0.486;2024-03-25T02:58:52;6.80;;;3.15;;
71423;SDS011;59240;51.370;-0.486;2024-03-25T03:03:48;7.28;;;3.17;;
71423;SDS011;59240;51.370;-0.486;2024-03-25T03:08:43;9.05;;;3.00;;
71423;SDS011;59240;51.370;-0.486;2024-03-25T03:13:39;6.10;;;3.42;;
71423;SDS011;59240;51.370;-0.486;2024-03-25T03:18:35;9.80;;;3.58;;
71423;SDS011;59240;51.370;-0.486;2024-03-25T03:23:30;10.75;;;3.40;;
71423;SDS011;59240;51.370;-0.486;2024-03-25T03:28:26;10.57;;;3.80;;
71423;SDS011;59240;51.370;-0.486;2024-03-25T03:33:23;6.72;;;3.33;;
71423;SDS011;59240;51.370;-0.486;2024-03-25T03:38:19;7.75;;;3.20;;
71423;SDS011;59240;51.370;-0.486;2024-03-25T03:43:15;8.98;;;3.10;;
71423;SDS011;59240;51.370;-0.486;2024-03-25T03:48:10;11.80;;;3.65;;
71423;SDS011;59240;51.370;-0.486;2024-03-25T03:53:06;6.75;;;4.13;;
71423;SDS011;59240;51.370;-0.486;2024-03-25T03:58:02;10.02;;;2.67;;
71423;SDS011;59240;51.370;-0.486;2024-03-25T04:02:58;7.30;;;2.83;;
71423;SDS011;59240;51.370;-0.486;2024-03-25T04:07:53;7.47;;;3.05;;
71423;SDS011;59240;51.370;-0.486;2024-03-25T04:12:49;6.50;;;3.47;;
71423;SDS011;59240;51.370;-0.486;2024-03-25T04:17:45;9.40;;;2.75;;
71423;SDS011;59240;51.370;-0.486;2024-03-25T04:22:42;13.40;;;3.28;;
71423;SDS011;59240;51.370;-0.486;2024-03-25T04:27:38;9.80;;;2.60;;
71423;SDS011;59240;51.370;-0.486;2024-03-25T04:32:34;10.65;;;3.63;;
71423;SDS011;59240;51.370;-0.486;2024-03-25T04:37:30;12.93;;;3.78;;
71423;SDS011;59240;51.370;-0.486;2024-03-25T04:42:27;14.38;;;3.47;;
71423;SDS011;59240;51.370;-0.486;2024-03-25T04:47:23;9.65;;;2.72;;
71423;SDS011;59240;51.370;-0.486;2024-03-25T04:52:19;7.28;;;2.80;;
71423;SDS011;59240;51.370;-0.486;2024-03-25T04:57:18;6.80;;;2.90;;
71423;SDS011;59240;51.370;-0.486;2024-03-25T05:02:18;8.70;;;3.08;;
71423;SDS011;59240;51.370;-0.486;2024-03-25T05:07:14;8.00;;;2.85;;
71423;SDS011;59240;51.370;-0.486;2024-03-25T05:12:09;9.85;;;3.00;;
71423;SDS011;59240;51.370;-0.486;2024-03-25T05:17:05;9.57;;;2.67;;
71423;SDS011;59240;51.370;-0.486;2024-03-25T05:22:03;5.18;;;2.67;;
71423;SDS011;59240;51.370;-0.486;2024-03-25T05:26:59;7.70;;;2.42;;
71423;SDS011;59240;51.370;-0.486;2024-03-25T05:31:56;5.18;;;2.38;;
71423;SDS011;59240;51.370;-0.486;2024-03-25T05:36:53;11.48;;;3.00;;
71423;SDS011;59240;51.370;-0.486;2024-03-25T05:41:49;16.27;;;2.88;;
71423;SDS011;59240;51.370;-0.486;2024-03-25T05:46:44;7.10;;;2.22;;
71423;SDS011;59240;51.370;-0.486;2024-03-25T05:51:40;9.75;;;2.85;;
71423;SDS011;59240;51.370;-0.486;2024-03-25T05:56:35;11.07;;;2.60;;
71423;SDS011;59240;51.370;-0.486;2024-03-25T06:01:31;5.63;;;2.85;;
71423;SDS011;59240;51.370;-0.486;2024-03-25T06:06:27;6.70;;;2.80;;
71423;SDS011;59240;51.370;-0.486;2024-03-25T06:11:23;9.32;;;2.65;;
71423;SDS011;59240;51.370;-0.486;2024-03-25T06:16:18;9.88;;;3.10;;
71423;SDS011;59240;51.370;-0.486;2024-03-25T06:21:14;10.55;;;2.95;;
71423;SDS011;59240;51.370;-0.486;2024-03-25T06:26:10;11.35;;;3.15;;
71423;SDS011;59240;51.370;-0.486;2024-03-25T06:31:06;12.27;;;2.70;;
71423;SDS011;59240;51.370;-0.486;2024-03-25T06:36:22;6.55;;;2.05;;
71423;SDS011;59240;51.370;-0.486;2024-03-25T06:41:18;7.53;;;1.55;;
71423;SDS011;59240;51.370;-0.486;2024-03-25T06:46:14;10.82;;;2.50;;
71423;SDS011;59240;51.370;-0.486;2024-03-25T06:51:09;9.55;;;2.00;;
71423;SDS011;59240;51.370;-0.486;2024-03-25T06:56:05;11.43;;;2.22;;
71423;SDS011;59240;51.370;-0.486;2024-03-25T07:01:07;7.82;;;1.60;;
71423;SDS011;59240;51.370;-0.486;2024-03-25T07:06:04;9.90;;;2.13;;
71423;SDS011;59240;51.370;-0.486;2024-03-25T07:11:00;10.98;;;1.77;;
71423;SDS011;59240;51.370;-0.486;2024-03-25T07:15:56;5.57;;;1.50;;
71423;SDS011;59240;51.370;-0.486;2024-03-25T07:20:52;14.55;;;1.60;;
71423;SDS011;59240;51.370;-0.486;2024-03-25T07:25:48;6.35;;;1.65;;
71423;SDS011;59240;51.370;-0.486;2024-03-25T07:30:43;5.80;;;1.60;;
71423;SDS011;59240;51.370;-0.486;2024-03-25T07:35:39;5.60;;;1.52;;
71423;SDS011;59240;51.370;-0.486;2024-03-25T07:40:35;6.13;;;1.10;;
71423;SDS011;59240;51.370;-0.486;2024-03-25T07:45:30;4.60;;;1.20;;
71423;SDS011;59240;51.370;-0.486;2024-03-25T07:50:26;5.57;;;1.50;;
71423;SDS011;59240;51.370;-0.486;2024-03-25T07:55:22;6.30;;;1.60;;
71423;SDS011;59240;51.370;-0.486;2024-03-25T08:00:17;8.57;;;1.30;;
71423;SDS011;59240;51.370;-0.486;2024-03-25T08:05:14;8.18;;;1.90;;
71423;SDS011;59240;51.370;-0.486;2024-03-25T08:10:09;5.38;;;1.27;;
71423;SDS011;59240;51.370;-0.486;2024-03-25T08:15:05;11.73;;;1.80;;
71423;SDS011;59240;51.370;-0.486;2024-03-25T08:20:01;5.43;;;1.35;;
71423;SDS011;59240;51.370;-0.486;2024-03-25T08:24:58;5.35;;;1.23;;
71423;SDS011;59240;51.370;-0.486;2024-03-25T08:29:54;13.85;;;2.35;;
71423;SDS011;59240;51.370;-0.486;2024-03-25T08:34:49;7.30;;;1.98;;
71423;SDS011;59240;51.370;-0.486;2024-03-25T08:39:45;8.82;;;1.35;;
71423;SDS011;59240;51.370;-0.486;2024-03-25T08:44:42;8.93;;;1.65;;
71423;SDS011;59240;51.370;-0.486;2024-03-25T08:49:37;6.28;;;1.33;;
71423;SDS011;59240;51.370;-0.486;2024-03-25T08:54:33;4.53;;;1.15;;
71423;SDS011;59240;51.370;-0.486;2024-03-25T08:59:29;9.95;;;1.95;;
71423;SDS011;59240;51.370;-0.486;2024-03-25T09:04:25;4.30;;;0.93;;
71423;SDS011;59240;51.370;-0.486;2024-03-25T09:09:20;2.78;;;1.02;;
71423;SDS011;59240;51.370;-0.486;2024-03-25T09:14:38;6.57;;;1.60;;
71423;SDS011;59240;51.370;-0.486;2024-03-25T09:19:33;2.60;;;1.25;;
71423;SDS011;59240;51.370;-0.486;2024-03-25T09:24:29;5.28;;;1.10;;
71423;SDS011;59240;51.370;-0.486;2024-03-25T09:29:25;5.40;;;1.23;;
71423;SDS011;59240;51.370;-0.486;2024-03-25T09:34:20;4.63;;;1.38;;
71423;SDS011;59240;51.370;-0.486;2024-03-25T09:39:16;8.63;;;1.10;;
71423;SDS011;59240;51.370;-0.486;2024-03-25T09:44:12;5.32;;;1.17;;
71423;SDS011;59240;51.370;-0.486;2024-03-25T09:49:07;7.07;;;1.50;;
71423;SDS011;59240;51.370;-0.486;2024-03-25T09:54:03;8.73;;;1.30;;
71423;SDS011;59240;51.370;-0.486;2024-03-25T09:59:00;9.00;;;1.30;;
71423;SDS011;59240;51.370;-0.486;2024-03-25T10:03:55;4.50;;;1.13;;
71423;SDS011;59240;51.370;-0.486;2024-03-25T10:08:54;11.05;;;1.52;;
71423;SDS011;59240;51.370;-0.486;2024-03-25T10:13:54;5.68;;;1.25;;
71423;SDS011;59240;51.370;-0.486;2024-03-25T10:18:50;3.05;;;1.00;;
71423;SDS011;59240;51.370;-0.486;2024-03-25T10:23:47;3.60;;;1.50;;
71423;SDS011;59240;51.370;-0.486;2024-03-25T10:28:44;2.55;;;0.77;;
71423;SDS011;59240;51.370;-0.486;2024-03-25T10:33:39;3.75;;;1.27;;
71423;SDS011;59240;51.370;-0.486;2024-03-25T10:38:35;8.07;;;1.13;;
71423;SDS011;59240;51.370;-0.486;2024-03-25T10:43:31;4.47;;;1.00;;
71423;SDS011;59240;51.370;-0.486;2024-03-25T10:48:28;2.88;;;1.33;;
71423;SDS011;59240;51.370;-0.486;2024-03-25T10:53:28;6.47;;;1.38;;
71423;SDS011;59240;51.370;-0.486;2024-03-25T10:58:25;9.20;;;1.50;;
71423;SDS011;59240;51.370;-0.486;2024-03-25T11:03:22;11.00;;;1.58;;
71423;SDS011;59240;51.370;-0.486;2024-03-25T11:08:18;11.27;;;1.73;;
71423;SDS011;59240;51.370;-0.486;2024-03-25T11:13:14;3.03;;;1.42;;
71423;SDS011;59240;51.370;-0.486;2024-03-25T11:18:15;4.10;;;2.55;;
71423;SDS011;59240;51.370;-0.486;2024-03-25T11:23:13;5.50;;;1.20;;
71423;SDS011;59240;51.370;-0.486;2024-03-25T11:28:09;2.97;;;1.20;;
71423;SDS011;59240;51.370;-0.486;2024-03-25T11:33:05;8.38;;;1.48;;
71423;SDS011;59240;51.370;-0.486;2024-03-25T11:38:01;3.80;;;1.30;;
71423;SDS011;59240;51.370;-0.486;2024-03-25T11:42:56;9.63;;;1.67;;
71423;SDS011;59240;51.370;-0.486;2024-03-25T11:47:53;6.28;;;1.60;;
71423;SDS011;59240;51.370;-0.486;2024-03-25T11:52:49;6.63;;;1.58;;
71423;SDS011;59240;51.370;-0.486;2024-03-25T11:57:45;4.22;;;2.30;;
71423;SDS011;59240;51.370;-0.486;2024-03-25T12:02:44;6.80;;;1.30;;
71423;SDS011;59240;51.370;-0.486;2024-03-25T12:07:40;8.27;;;1.52;;
71423;SDS011;59240;51.370;-0.486;2024-03-25T12:12:36;7.00;;;1.67;;
71423;SDS011;59240;51.370;-0.486;2024-03-25T12:17:34;9.25;;;1.77;;
71423;SDS011;59240;51.370;-0.486;2024-03-25T12:22:30;3.17;;;1.67;;
71423;SDS011;59240;51.370;-0.486;2024-03-25T12:27:28;6.90;;;1.42;;
71423;SDS011;59240;51.370;-0.486;2024-03-25T12:32:30;7.80;;;1.02;;
71423;SDS011;59240;51.370;-0.486;2024-03-25T12:37:26;6.43;;;1.55;;
71423;SDS011;59240;51.370;-0.486;2024-03-25T12:42:22;8.75;;;1.40;;
71423;SDS011;59240;51.370;-0.486;2024-03-25T12:47:18;3.13;;;1.20;;
71423;SDS011;59240;51.370;-0.486;2024-03-25T12:52:16;7.60;;;1.55;;
71423;SDS011;59240;51.370;-0.486;2024-03-25T12:57:11;6.43;;;1.60;;
71423;SDS011;59240;51.370;-0.486;2024-03-25T13:02:08;9.63;;;1.90;;
71423;SDS011;59240;51.370;-0.486;2024-03-25T13:07:06;6.28;;;1.83;;
71423;SDS011;59240;51.370;-0.486;2024-03-25T13:12:02;5.10;;;1.30;;
71423;SDS011;59240;51.370;-0.486;2024-03-25T13:16:59;3.97;;;1.10;;
71423;SDS011;59240;51.370;-0.486;2024-03-25T13:21:57;7.88;;;1.40;;
71423;SDS011;59240;51.370;-0.486;2024-03-25T13:26:53;3.75;;;0.90;;
71423;SDS011;59240;51.370;-0.486;2024-03-25T13:31:49;5.97;;;1.13;;
71423;SDS011;59240;51.370;-0.486;2024-03-25T13:36:44;3.40;;;1.00;;
71423;SDS011;59240;51.370;-0.486;2024-03-25T13:41:40;8.48;;;1.73;;
71423;SDS011;59240;51.370;-0.486;2024-03-25T13:46:40;5.57;;;1.13;;
71423;SDS011;59240;51.370;-0.486;2024-03-25T13:51:35;3.38;;;0.90;;
71423;SDS011;59240;51.370;-0.486;2024-03-25T13:56:31;5.13;;;1.23;;
71423;SDS011;59240;51.370;-0.486;2024-03-25T14:01:27;2.75;;;1.20;;
71423;SDS011;59240;51.370;-0.486;2024-03-25T14:06:23;5.78;;;0.90;;
71423;SDS011;59240;51.370;-0.486;2024-03-25T14:11:18;5.57;;;1.02;;
71423;SDS011;59240;51.370;-0.486;2024-03-25T14:16:14;7.28;;;1.10;;
71423;SDS011;59240;51.370;-0.486;2024-03-25T14:21:10;1.52;;;0.52;;
71423;SDS011;59240;51.370;-0.486;2024-03-25T14:26:05;8.98;;;1.25;;
71423;SDS011;59240;51.370;-0.486;2024-03-25T14:31:01;7.35;;;1.10;;
71423;SDS011;59240;51.370;-0.486;2024-03-25T14:35:57;3.97;;;0.90;;
71423;SDS011;59240;51.370;-0.486;2024-03-25T14:40:52;7.10;;;1.20;;
71423;SDS011;59240;51.370;-0.486;2024-03-25T14:45:48;5.55;;;1.20;;
71423;SDS011;59240;51.370;-0.486;2024-03-25T14:50:44;4.13;;;1.10;;
71423;SDS011;59240;51.370;-0.486;2024-03-25T14:55:41;7.10;;;1.85;;
71423;SDS011;59240;51.370;-0.486;2024-03-25T15:00:37;5.63;;;1.42;;
71423;SDS011;59240;51.370;-0.486;2024-03-25T15:05:32;8.90;;;1.33;;
71423;SDS011;59240;51.370;-0.486;2024-03-25T15:10:28;5.95;;;1.98;;
71423;SDS011;59240;51.370;-0.486;2024-03-25T15:15:24;4.10;;;1.15;;
71423;SDS011;59240;51.370;-0.486;2024-03-25T15:20:19;6.45;;;1.35;;
71423;SDS011;59240;51.370;-0.486;2024-03-25T15:25:15;3.42;;;1.00;;
71423;SDS011;59240;51.370;-0.486;2024-03-25T15:30:11;4.72;;;0.80;;
71423;SDS011;59240;51.370;-0.486;2024-03-25T15:35:07;3.08;;;0.90;;
71423;SDS011;59240;51.370;-0.486;2024-03-25T15:40:04;4.40;;;1.20;;
71423;SDS011;59240;51.370;-0.486;2024-03-25T15:45:01;4.80;;;1.42;;
71423;SDS011;59240;51.370;-0.486;2024-03-25T15:49:58;6.82;;;1.33;;
71423;SDS011;59240;51.370;-0.486;2024-03-25T15:54:53;5.72;;;1.13;;
71423;SDS011;59240;51.370;-0.486;2024-03-25T15:59:49;2.80;;;0.88;;
71423;SDS011;59240;51.370;-0.486;2024-03-25T16:04:45;3.95;;;1.08;;
71423;SDS011;59240;51.370;-0.486;2024-03-25T16:09:40;6.50;;;1.30;;
71423;SDS011;59240;51.370;-0.486;2024-03-25T16:14:36;3.53;;;0.90;;
71423;SDS011;59240;51.370;-0.486;2024-03-25T16:19:32;4.30;;;1.05;;
71423;SDS011;59240;51.370;-0.486;2024-03-25T16:24:28;3.13;;;1.00;;
71423;SDS011;59240;51.370;-0.486;2024-03-25T16:29:24;6.07;;;1.30;;
71423;SDS011;59240;51.370;-0.486;2024-03-25T16:34:20;3.70;;;1.10;;
71423;SDS011;59240;51.370;-0.486;2024-03-25T16:39:17;4.95;;;1.30;;
71423;SDS011;59240;51.370;-0.486;2024-03-25T16:44:13;2.13;;;1.55;;
71423;SDS011;59240;51.370;-0.486;2024-03-25T16:49:09;9.25;;;3.95;;
71423;SDS011;59240;51.370;-0.486;2024-03-25T16:54:04;2.63;;;1.30;;
71423;SDS011;59240;51.370;-0.486;2024-03-25T16:59:00;7.47;;;2.67;;
71423;SDS011;59240;51.370;-0.486;2024-03-25T17:03:56;3.72;;;1.33;;
71423;SDS011;59240;51.370;-0.486;2024-03-25T17:08:51;3.75;;;1.42;;
71423;SDS011;59240;51.370;-0.486;2024-03-25T17:13:47;4.93;;;1.38;;
71423;SDS011;59240;51.370;-0.486;2024-03-25T17:18:42;4.65;;;1.20;;
71423;SDS011;59240;51.370;-0.486;2024-03-25T17:23:38;4.88;;;1.52;;
71423;SDS011;59240;51.370;-0.486;2024-03-25T17:28:34;4.32;;;1.50;;
71423;SDS011;59240;51.370;-0.486;2024-03-25T17:33:31;5.75;;;1.67;;
71423;SDS011;59240;51.370;-0.486;2024-03-25T17:38:26;2.67;;;1.58;;
71423;SDS011;59240;51.370;-0.486;2024-03-25T17:43:22;4.85;;;1.80;;
71423;SDS011;59240;51.370;-0.486;2024-03-25T17:48:19;4.45;;;2.00;;
71423;SDS011;59240;51.370;-0.486;2024-03-25T17:53:16;7.03;;;2.55;;
71423;SDS011;59240;51.370;-0.486;2024-03-25T17:58:11;9.15;;;2.22;;
71423;SDS011;59240;51.370;-0.486;2024-03-25T18:03:07;6.88;;;1.70;;
71423;SDS011;59240;51.370;-0.486;2024-03-25T18:08:05;3.75;;;1.92;;
71423;SDS011;59240;51.370;-0.486;2024-03-25T18:13:01;5.20;;;1.77;;
71423;SDS011;59240;51.370;-0.486;2024-03-25T18:18:00;5.88;;;2.08;;
71423;SDS011;59240;51.370;-0.486;2024-03-25T18:22:56;7.65;;;2.00;;
71423;SDS011;59240;51.370;-0.486;2024-03-25T18:27:51;5.88;;;1.90;;
71423;SDS011;59240;51.370;-0.486;2024-03-25T18:32:47;5.30;;;2.50;;
71423;SDS011;59240;51.370;-0.486;2024-03-25T18:37:43;5.47;;;1.90;;
71423;SDS011;59240;51.370;-0.486;2024-03-25T18:42:39;6.40;;;2.20;;
71423;SDS011;59240;51.370;-0.486;2024-03-25T18:47:35;6.05;;;1.77;;
71423;SDS011;59240;51.370;-0.486;2024-03-25T18:52:33;7.95;;;1.73;;
71423;SDS011;59240;51.370;-0.486;2024-03-25T18:57:28;15.00;;;6.18;;
71423;SDS011;59240;51.370;-0.486;2024-03-25T19:02:24;9.75;;;4.70;;
71423;SDS011;59240;51.370;-0.486;2024-03-25T19:07:20;9.77;;;3.00;;
71423;SDS011;59240;51.370;-0.486;2024-03-25T19:12:16;3.65;;;1.95;;
71423;SDS011;59240;51.370;-0.486;2024-03-25T19:17:12;3.97;;;2.72;;
71423;SDS011;59240;51.370;-0.486;2024-03-25T19:22:08;4.75;;;2.20;;
71423;SDS011;59240;51.370;-0.486;2024-03-25T19:27:04;6.63;;;2.15;;
71423;SDS011;59240;51.370;-0.486;2024-03-25T19:32:00;8.38;;;2.40;;
71423;SDS011;59240;51.370;-0.486;2024-03-25T19:36:55;4.28;;;2.30;;
71423;SDS011;59240;51.370;-0.486;2024-03-25T19:41:51;6.82;;;2.38;;
71423;SDS011;59240;51.370;-0.486;2024-03-25T19:46:49;5.97;;;2.63;;
71423;SDS011;59240;51.370;-0.486;2024-03-25T19:51:45;8.63;;;3.38;;
71423;SDS011;59240;51.370;-0.486;2024-03-25T19:56:41;8.88;;;2.72;;
71423;SDS011;59240;51.370;-0.486;2024-03-25T20:01:37;5.55;;;2.40;;
71423;SDS011;59240;51.370;-0.486;2024-03-25T20:06:33;6.32;;;2.53;;
71423;SDS011;59240;51.370;-0.486;2024-03-25T20:11:30;5.40;;;2.10;;
71423;SDS011;59240;51.370;-0.486;2024-03-25T20:16:25;7.63;;;3.15;;
71423;SDS011;59240;51.370;-0.486;2024-03-25T20:21:21;6.07;;;3.03;;
71423;SDS011;59240;51.370;-0.486;2024-03-25T20:26:17;13.55;;;3.40;;
71423;SDS011;59240;51.370;-0.486;2024-03-25T20:31:13;8.02;;;3.53;;
71423;SDS011;59240;51.370;-0.486;2024-03-25T20:36:08;4.75;;;2.08;;
71423;SDS011;59240;51.370;-0.486;2024-03-25T20:41:04;8.23;;;2.70;;
71423;SDS011;59240;51.370;-0.486;2024-03-25T20:46:00;5.80;;;2.63;;
71423;SDS011;59240;51.370;-0.486;2024-03-25T20:50:55;7.72;;;2.13;;
71423;SDS011;59240;51.370;-0.486;2024-03-25T20:55:51;6.88;;;3.05;;
71423;SDS011;59240;51.370;-0.486;2024-03-25T21:00:47;5.97;;;2.90;;
71423;SDS011;59240;51.370;-0.486;2024-03-25T21:05:53;5.05;;;2.47;;
71423;SDS011;59240;51.370;-0.486;2024-03-25T21:10:49;6.97;;;2.88;;
71423;SDS011;59240;51.370;-0.486;2024-03-25T21:15:45;6.15;;;2.78;;
71423;SDS011;59240;51.370;-0.486;2024-03-25T21:20:41;6.03;;;2.22;;
71423;SDS011;59240;51.370;-0.486;2024-03-25T21:25:40;9.48;;;2.50;;
71423;SDS011;59240;51.370;-0.486;2024-03-25T21:30:35;4.57;;;1.85;;
71423;SDS011;59240;51.370;-0.486;2024-03-25T21:35:35;5.25;;;2.78;;
71423;SDS011;59240;51.370;-0.486;2024-03-25T21:40:31;9.55;;;2.47;;
71423;SDS011;59240;51.370;-0.486;2024-03-25T21:45:26;9.25;;;2.72;;
71423;SDS011;59240;51.370;-0.486;2024-03-25T21:50:22;5.43;;;2.80;;
71423;SDS011;59240;51.370;-0.486;2024-03-25T21:55:18;6.50;;;2.60;;
71423;SDS011;59240;51.370;-0.486;2024-03-25T22:00:14;6.78;;;3.50;;
71423;SDS011;59240;51.370;-0.486;2024-03-25T22:05:10;8.45;;;3.38;;
71423;SDS011;59240;51.370;-0.486;2024-03-25T22:10:06;7.82;;;2.70;;
71423;SDS011;59240;51.370;-0.486;2024-03-25T22:15:02;7.55;;;2.78;;
71423;SDS011;59240;51.370;-0.486;2024-03-25T22:19:58;6.10;;;1.80;;
71423;SDS011;59240;51.370;-0.486;2024-03-25T22:24:54;10.45;;;2.88;;
71423;SDS011;59240;51.370;-0.486;2024-03-25T22:29:50;4.90;;;2.50;;
71423;SDS011;59240;51.370;-0.486;2024-03-25T22:34:45;5.88;;;2.28;;
71423;SDS011;59240;51.370;-0.486;2024-03-25T22:39:41;4.95;;;1.95;;
71423;SDS011;59240;51.370;-0.486;2024-03-25T22:44:40;5.03;;;2.22;;
71423;SDS011;59240;51.370;-0.486;2024-03-25T22:49:36;8.20;;;3.03;;
71423;SDS011;59240;51.370;-0.486;2024-03-25T22:54:32;6.80;;;2.33;;
71423;SDS011;59240;51.370;-0.486;2024-03-25T22:59:31;5.90;;;2.15;;
71423;SDS011;59240;51.370;-0.486;2024-03-25T23:04:27;7.50;;;2.50;;
71423;SDS011;59240;51.370;-0.486;2024-03-25T23:09:23;7.70;;;2.63;;
71423;SDS011;59240;51.370;-0.486;2024-03-25T23:14:18;8.43;;;2.95;;
71423;SDS011;59240;51.370;-0.486;2024-03-25T23:19:14;6.43;;;2.47;;
71423;SDS011;59240;51.370;-0.486;2024-03-25T23:24:11;5.68;;;2.22;;
71423;SDS011;59240;51.370;-0.486;2024-03-25T23:29:07;8.05;;;2.38;;
71423;SDS011;59240;51.370;-0.486;2024-03-25T23:34:04;7.65;;;2.80;;
71423;SDS011;59240;51.370;-0.486;2024-03-25T23:38:59;7.85;;;2.58;;
71423;SDS011;59240;51.370;-0.486;2024-03-25T23:43:57;9.60;;;2.33;;
71423;SDS011;59240;51.370;-0.486;2024-03-25T23:48:52;7.93;;;2.40;;
71423;SDS011;59240;51.370;-0.486;2024-03-25T23:53:48;6.35;;;2.38;;
71423;SDS011;59240;51.370;-0.486;2024-03-25T23:58:44;6.88;;;2.42;;
